sensor_id;sensor_type;location;lat;lon;timestamp;temperature;humidity
23100;DHT22;53791;50.696;4.396;2022-12-29T00:00:30;11.10;99.90
23100;DHT22;53791;50.696;4.396;2022-12-29T00:03:02;11.20;99.90
23100;DHT22;53791;50.696;4.396;2022-12-29T00:05:29;11.20;99.90
23100;DHT22;53791;50.696;4.396;2022-12-29T00:07:57;11.20;99.90
23100;DHT22;53791;50.696;4.396;2022-12-29T00:10:31;11.20;99.90
23100;DHT22;53791;50.696;4.396;2022-12-29T00:12:58;11.30;99.90
23100;DHT22;53791;50.696;4.396;2022-12-29T00:15:43;11.30;99.90
23100;DHT22;53791;50.696;4.396;2022-12-29T00:18:10;11.30;99.90
23100;DHT22;53791;50.696;4.396;2022-12-29T00:20:38;11.30;99.90
23100;DHT22;53791;50.696;4.396;2022-12-29T00:23:23;11.40;99.90
23100;DHT22;53791;50.696;4.396;2022-12-29T00:26:16;11.40;99.90
23100;DHT22;53791;50.696;4.396;2022-12-29T00:29:03;11.40;99.90
23100;DHT22;53791;50.696;4.396;2022-12-29T00:31:48;11.30;99.90
23100;DHT22;53791;50.696;4.396;2022-12-29T00:34:33;11.30;99.90
23100;DHT22;53791;50.696;4.396;2022-12-29T00:37:18;11.30;99.90
23100;DHT22;53791;50.696;4.396;2022-12-29T00:39:47;11.30;99.90
23100;DHT22;53791;50.696;4.396;2022-12-29T00:42:33;11.20;99.90
23100;DHT22;53791;50.696;4.396;2022-12-29T00:45:20;11.20;99.90
23100;DHT22;53791;50.696;4.396;2022-12-29T00:47:47;11.20;99.90
23100;DHT22;53791;50.696;4.396;2022-12-29T00:50:16;11.20;99.90
23100;DHT22;53791;50.696;4.396;2022-12-29T00:52:50;11.30;99.90
23100;DHT22;53791;50.696;4.396;2022-12-29T00:55:16;11.20;99.90
23100;DHT22;53791;50.696;4.396;2022-12-29T00:57:43;11.20;99.90
23100;DHT22;53791;50.696;4.396;2022-12-29T01:00:12;11.30;99.90
23100;DHT22;53791;50.696;4.396;2022-12-29T01:02:40;11.20;99.90
23100;DHT22;53791;50.696;4.396;2022-12-29T01:05:08;11.10;99.90
23100;DHT22;53791;50.696;4.396;2022-12-29T01:07:35;11.00;99.90
23100;DHT22;53791;50.696;4.396;2022-12-29T01:10:03;11.00;99.90
23100;DHT22;53791;50.696;4.396;2022-12-29T01:12:36;10.90;99.90
23100;DHT22;53791;50.696;4.396;2022-12-29T01:15:13;10.80;99.90
23100;DHT22;53791;50.696;4.396;2022-12-29T01:17:43;10.70;99.90
23100;DHT22;53791;50.696;4.396;2022-12-29T01:20:13;10.70;99.90
23100;DHT22;53791;50.696;4.396;2022-12-29T01:22:42;10.60;99.90
23100;DHT22;53791;50.696;4.396;2022-12-29T01:25:10;10.60;99.90
23100;DHT22;53791;50.696;4.396;2022-12-29T01:27:38;10.50;99.90
23100;DHT22;53791;50.696;4.396;2022-12-29T01:30:06;10.40;99.90
23100;DHT22;53791;50.696;4.396;2022-12-29T01:32:33;10.40;99.90
23100;DHT22;53791;50.696;4.396;2022-12-29T01:35:01;10.40;99.90
23100;DHT22;53791;50.696;4.396;2022-12-29T01:37:28;10.40;99.90
23100;DHT22;53791;50.696;4.396;2022-12-29T01:39:56;10.40;99.90
23100;DHT22;53791;50.696;4.396;2022-12-29T01:42:25;10.40;99.90
23100;DHT22;53791;50.696;4.396;2022-12-29T01:44:57;10.40;99.90
23100;DHT22;53791;50.696;4.396;2022-12-29T01:47:37;10.40;99.90
23100;DHT22;53791;50.696;4.396;2022-12-29T01:50:15;10.40;99.90
23100;DHT22;53791;50.696;4.396;2022-12-29T01:52:56;10.40;99.90
23100;DHT22;53791;50.696;4.396;2022-12-29T01:55:17;10.50;99.90
23100;DHT22;53791;50.696;4.396;2022-12-29T01:57:47;10.50;99.90
23100;DHT22;53791;50.696;4.396;2022-12-29T02:00:15;10.50;99.90
23100;DHT22;53791;50.696;4.396;2022-12-29T02:02:46;10.60;99.90
23100;DHT22;53791;50.696;4.396;2022-12-29T02:05:21;10.60;99.90
23100;DHT22;53791;50.696;4.396;2022-12-29T02:07:49;10.60;99.90
23100;DHT22;53791;50.696;4.396;2022-12-29T02:10:21;10.60;99.90
23100;DHT22;53791;50.696;4.396;2022-12-29T02:12:50;10.60;99.90
23100;DHT22;53791;50.696;4.396;2022-12-29T02:15:22;10.60;99.90
23100;DHT22;53791;50.696;4.396;2022-12-29T02:17:59;10.60;99.90
23100;DHT22;53791;50.696;4.396;2022-12-29T02:23:24;10.60;99.90
23100;DHT22;53791;50.696;4.396;2022-12-29T02:28:33;10.50;99.90
23100;DHT22;53791;50.696;4.396;2022-12-29T02:31:15;10.50;99.90
23100;DHT22;53791;50.696;4.396;2022-12-29T02:34:04;10.50;99.90
23100;DHT22;53791;50.696;4.396;2022-12-29T02:36:44;10.50;99.90
23100;DHT22;53791;50.696;4.396;2022-12-29T02:41:59;10.40;99.90
23100;DHT22;53791;50.696;4.396;2022-12-29T02:44:49;10.50;99.90
23100;DHT22;53791;50.696;4.396;2022-12-29T02:47:34;10.50;99.90
23100;DHT22;53791;50.696;4.396;2022-12-29T02:50:01;10.50;99.90
23100;DHT22;53791;50.696;4.396;2022-12-29T02:52:37;10.50;99.90
23100;DHT22;53791;50.696;4.396;2022-12-29T02:55:05;10.50;99.90
23100;DHT22;53791;50.696;4.396;2022-12-29T02:57:34;10.50;99.90
23100;DHT22;53791;50.696;4.396;2022-12-29T03:00:05;10.50;99.90
23100;DHT22;53791;50.696;4.396;2022-12-29T03:03:00;10.50;99.90
23100;DHT22;53791;50.696;4.396;2022-12-29T03:05:41;10.50;99.90
23100;DHT22;53791;50.696;4.396;2022-12-29T03:08:28;10.40;99.90
23100;DHT22;53791;50.696;4.396;2022-12-29T03:11:08;10.40;99.90
23100;DHT22;53791;50.696;4.396;2022-12-29T03:13:46;10.40;99.90
23100;DHT22;53791;50.696;4.396;2022-12-29T03:16:35;10.40;99.90
23100;DHT22;53791;50.696;4.396;2022-12-29T03:19:26;10.40;99.90
23100;DHT22;53791;50.696;4.396;2022-12-29T03:22:03;10.30;99.90
23100;DHT22;53791;50.696;4.396;2022-12-29T03:24:51;10.30;99.90
23100;DHT22;53791;50.696;4.396;2022-12-29T03:27:25;10.30;99.90
23100;DHT22;53791;50.696;4.396;2022-12-29T03:30:01;10.20;99.90
23100;DHT22;53791;50.696;4.396;2022-12-29T03:32:35;10.20;99.90
23100;DHT22;53791;50.696;4.396;2022-12-29T03:35:04;10.20;99.90
23100;DHT22;53791;50.696;4.396;2022-12-29T03:37:38;10.10;99.90
23100;DHT22;53791;50.696;4.396;2022-12-29T03:40:03;10.10;99.90
23100;DHT22;53791;50.696;4.396;2022-12-29T03:42:34;10.10;99.90
23100;DHT22;53791;50.696;4.396;2022-12-29T03:45:02;10.10;99.90
23100;DHT22;53791;50.696;4.396;2022-12-29T03:47:31;10.00;99.90
23100;DHT22;53791;50.696;4.396;2022-12-29T03:49:58;10.00;99.90
23100;DHT22;53791;50.696;4.396;2022-12-29T03:52:26;10.10;99.90
23100;DHT22;53791;50.696;4.396;2022-12-29T03:54:53;10.00;99.90
23100;DHT22;53791;50.696;4.396;2022-12-29T03:57:24;10.00;99.90
23100;DHT22;53791;50.696;4.396;2022-12-29T03:59:51;10.00;99.90
23100;DHT22;53791;50.696;4.396;2022-12-29T04:02:19;10.00;99.90
23100;DHT22;53791;50.696;4.396;2022-12-29T04:04:47;10.00;99.90
23100;DHT22;53791;50.696;4.396;2022-12-29T04:07:14;10.00;99.90
23100;DHT22;53791;50.696;4.396;2022-12-29T04:09:42;10.00;99.90
23100;DHT22;53791;50.696;4.396;2022-12-29T04:12:09;10.00;99.90
23100;DHT22;53791;50.696;4.396;2022-12-29T04:14:37;10.00;99.90
23100;DHT22;53791;50.696;4.396;2022-12-29T04:17:04;10.00;99.90
23100;DHT22;53791;50.696;4.396;2022-12-29T04:19:32;10.00;99.90
23100;DHT22;53791;50.696;4.396;2022-12-29T04:22:01;10.00;99.90
23100;DHT22;53791;50.696;4.396;2022-12-29T04:24:28;10.00;99.90
23100;DHT22;53791;50.696;4.396;2022-12-29T04:26:58;10.00;99.90
23100;DHT22;53791;50.696;4.396;2022-12-29T04:29:27;10.00;99.90
23100;DHT22;53791;50.696;4.396;2022-12-29T04:32:00;10.00;99.90
23100;DHT22;53791;50.696;4.396;2022-12-29T04:34:29;10.00;99.90
23100;DHT22;53791;50.696;4.396;2022-12-29T04:36:56;10.10;99.90
23100;DHT22;53791;50.696;4.396;2022-12-29T04:39:24;10.10;99.90
23100;DHT22;53791;50.696;4.396;2022-12-29T04:41:51;10.10;99.90
23100;DHT22;53791;50.696;4.396;2022-12-29T04:44:19;10.10;99.90
23100;DHT22;53791;50.696;4.396;2022-12-29T04:46:48;10.10;99.90
23100;DHT22;53791;50.696;4.396;2022-12-29T04:49:16;10.10;99.90
23100;DHT22;53791;50.696;4.396;2022-12-29T04:51:43;10.10;99.90
23100;DHT22;53791;50.696;4.396;2022-12-29T04:54:11;10.20;99.90
23100;DHT22;53791;50.696;4.396;2022-12-29T04:56:38;10.20;99.90
23100;DHT22;53791;50.696;4.396;2022-12-29T04:59:06;10.30;99.90
23100;DHT22;53791;50.696;4.396;2022-12-29T05:01:34;10.30;99.90
23100;DHT22;53791;50.696;4.396;2022-12-29T05:04:01;10.40;99.90
23100;DHT22;53791;50.696;4.396;2022-12-29T05:06:29;10.40;99.90
23100;DHT22;53791;50.696;4.396;2022-12-29T05:08:57;10.40;99.90
23100;DHT22;53791;50.696;4.396;2022-12-29T05:11:24;10.40;99.90
23100;DHT22;53791;50.696;4.396;2022-12-29T05:13:52;10.50;99.90
23100;DHT22;53791;50.696;4.396;2022-12-29T05:16:19;10.50;99.90
23100;DHT22;53791;50.696;4.396;2022-12-29T05:18:47;10.50;99.90
23100;DHT22;53791;50.696;4.396;2022-12-29T05:21:14;10.50;99.90
23100;DHT22;53791;50.696;4.396;2022-12-29T05:23:41;10.40;99.90
23100;DHT22;53791;50.696;4.396;2022-12-29T05:26:10;10.40;99.90
23100;DHT22;53791;50.696;4.396;2022-12-29T05:28:40;10.40;99.90
23100;DHT22;53791;50.696;4.396;2022-12-29T05:31:07;10.40;99.90
23100;DHT22;53791;50.696;4.396;2022-12-29T05:33:38;10.40;99.90
23100;DHT22;53791;50.696;4.396;2022-12-29T05:36:09;10.40;99.90
23100;DHT22;53791;50.696;4.396;2022-12-29T05:38:37;10.40;99.90
23100;DHT22;53791;50.696;4.396;2022-12-29T05:41:04;10.40;99.90
23100;DHT22;53791;50.696;4.396;2022-12-29T05:43:32;10.40;99.90
23100;DHT22;53791;50.696;4.396;2022-12-29T05:45:59;10.50;99.90
23100;DHT22;53791;50.696;4.396;2022-12-29T05:48:28;10.50;99.90
23100;DHT22;53791;50.696;4.396;2022-12-29T05:50:56;10.50;99.90
23100;DHT22;53791;50.696;4.396;2022-12-29T05:53:23;10.50;99.90
23100;DHT22;53791;50.696;4.396;2022-12-29T05:55:51;10.40;99.90
23100;DHT22;53791;50.696;4.396;2022-12-29T05:58:18;10.40;99.90
23100;DHT22;53791;50.696;4.396;2022-12-29T06:00:47;10.40;99.90
23100;DHT22;53791;50.696;4.396;2022-12-29T06:03:15;10.30;99.90
23100;DHT22;53791;50.696;4.396;2022-12-29T06:05:45;10.40;99.90
23100;DHT22;53791;50.696;4.396;2022-12-29T06:08:13;10.50;99.90
23100;DHT22;53791;50.696;4.396;2022-12-29T06:10:40;10.50;99.90
23100;DHT22;53791;50.696;4.396;2022-12-29T06:13:11;10.50;99.90
23100;DHT22;53791;50.696;4.396;2022-12-29T06:15:41;10.40;99.90
23100;DHT22;53791;50.696;4.396;2022-12-29T06:18:09;10.50;99.90
23100;DHT22;53791;50.696;4.396;2022-12-29T06:20:36;10.50;99.90
23100;DHT22;53791;50.696;4.396;2022-12-29T06:23:04;10.50;99.90
23100;DHT22;53791;50.696;4.396;2022-12-29T06:25:31;10.50;99.90
23100;DHT22;53791;50.696;4.396;2022-12-29T06:28:00;10.50;99.90
23100;DHT22;53791;50.696;4.396;2022-12-29T06:30:28;10.50;99.90
23100;DHT22;53791;50.696;4.396;2022-12-29T06:32:57;10.50;99.90
23100;DHT22;53791;50.696;4.396;2022-12-29T06:35:26;10.50;99.90
23100;DHT22;53791;50.696;4.396;2022-12-29T06:37:57;10.60;99.90
23100;DHT22;53791;50.696;4.396;2022-12-29T06:40:30;10.60;99.90
23100;DHT22;53791;50.696;4.396;2022-12-29T06:42:59;10.60;99.90
23100;DHT22;53791;50.696;4.396;2022-12-29T06:45:28;10.60;99.90
23100;DHT22;53791;50.696;4.396;2022-12-29T06:47:59;10.60;99.90
23100;DHT22;53791;50.696;4.396;2022-12-29T06:50:29;10.50;99.90
23100;DHT22;53791;50.696;4.396;2022-12-29T06:52:57;10.50;99.90
23100;DHT22;53791;50.696;4.396;2022-12-29T06:55:24;10.50;99.90
23100;DHT22;53791;50.696;4.396;2022-12-29T06:57:57;10.40;99.90
23100;DHT22;53791;50.696;4.396;2022-12-29T07:00:27;10.40;99.90
23100;DHT22;53791;50.696;4.396;2022-12-29T07:02:55;10.40;99.90
23100;DHT22;53791;50.696;4.396;2022-12-29T07:05:25;10.30;99.90
23100;DHT22;53791;50.696;4.396;2022-12-29T07:07:54;10.40;99.90
23100;DHT22;53791;50.696;4.396;2022-12-29T07:10:23;10.40;99.90
23100;DHT22;53791;50.696;4.396;2022-12-29T07:12:50;10.30;99.90
23100;DHT22;53791;50.696;4.396;2022-12-29T07:15:18;10.30;99.90
23100;DHT22;53791;50.696;4.396;2022-12-29T07:17:45;10.30;99.90
23100;DHT22;53791;50.696;4.396;2022-12-29T07:20:16;10.20;99.90
23100;DHT22;53791;50.696;4.396;2022-12-29T07:22:51;10.20;99.90
23100;DHT22;53791;50.696;4.396;2022-12-29T07:25:19;10.20;99.90
23100;DHT22;53791;50.696;4.396;2022-12-29T07:27:49;10.20;99.90
23100;DHT22;53791;50.696;4.396;2022-12-29T07:30:17;10.30;99.90
23100;DHT22;53791;50.696;4.396;2022-12-29T07:32:44;10.30;99.90
23100;DHT22;53791;50.696;4.396;2022-12-29T07:35:13;10.30;99.90
23100;DHT22;53791;50.696;4.396;2022-12-29T07:37:40;10.30;99.90
23100;DHT22;53791;50.696;4.396;2022-12-29T07:40:10;10.30;99.90
23100;DHT22;53791;50.696;4.396;2022-12-29T07:42:39;10.20;99.90
23100;DHT22;53791;50.696;4.396;2022-12-29T07:45:07;10.30;99.90
23100;DHT22;53791;50.696;4.396;2022-12-29T07:47:35;10.20;99.90
23100;DHT22;53791;50.696;4.396;2022-12-29T07:50:03;10.30;99.90
23100;DHT22;53791;50.696;4.396;2022-12-29T07:52:32;10.30;99.90
23100;DHT22;53791;50.696;4.396;2022-12-29T07:55:02;10.30;99.90
23100;DHT22;53791;50.696;4.396;2022-12-29T07:57:30;10.20;99.90
23100;DHT22;53791;50.696;4.396;2022-12-29T07:59:59;10.20;99.90
23100;DHT22;53791;50.696;4.396;2022-12-29T08:02:26;10.20;99.90
23100;DHT22;53791;50.696;4.396;2022-12-29T08:04:55;10.20;99.90
23100;DHT22;53791;50.696;4.396;2022-12-29T08:07:22;10.20;99.90
23100;DHT22;53791;50.696;4.396;2022-12-29T08:09:50;10.20;99.90
23100;DHT22;53791;50.696;4.396;2022-12-29T08:12:18;10.20;99.90
23100;DHT22;53791;50.696;4.396;2022-12-29T08:14:46;10.20;99.90
23100;DHT22;53791;50.696;4.396;2022-12-29T08:17:13;10.20;99.90
23100;DHT22;53791;50.696;4.396;2022-12-29T08:19:43;10.20;99.90
23100;DHT22;53791;50.696;4.396;2022-12-29T08:22:12;10.20;99.90
23100;DHT22;53791;50.696;4.396;2022-12-29T08:24:40;10.20;99.90
23100;DHT22;53791;50.696;4.396;2022-12-29T08:27:07;10.20;99.90
23100;DHT22;53791;50.696;4.396;2022-12-29T08:29:35;10.20;99.90
23100;DHT22;53791;50.696;4.396;2022-12-29T08:32:02;10.20;99.90
23100;DHT22;53791;50.696;4.396;2022-12-29T08:34:33;10.20;99.90
23100;DHT22;53791;50.696;4.396;2022-12-29T08:37:04;10.20;99.90
23100;DHT22;53791;50.696;4.396;2022-12-29T08:39:31;10.20;99.90
23100;DHT22;53791;50.696;4.396;2022-12-29T08:41:59;10.10;99.90
23100;DHT22;53791;50.696;4.396;2022-12-29T08:44:26;10.10;99.90
23100;DHT22;53791;50.696;4.396;2022-12-29T08:46:54;10.10;99.90
23100;DHT22;53791;50.696;4.396;2022-12-29T08:49:24;10.10;99.90
23100;DHT22;53791;50.696;4.396;2022-12-29T08:51:53;10.10;99.90
23100;DHT22;53791;50.696;4.396;2022-12-29T08:54:20;10.00;99.90
23100;DHT22;53791;50.696;4.396;2022-12-29T08:56:55;10.00;99.90
23100;DHT22;53791;50.696;4.396;2022-12-29T08:59:23;10.00;99.90
23100;DHT22;53791;50.696;4.396;2022-12-29T09:01:51;10.00;99.90
23100;DHT22;53791;50.696;4.396;2022-12-29T09:04:21;10.00;99.90
23100;DHT22;53791;50.696;4.396;2022-12-29T09:06:50;10.00;99.90
23100;DHT22;53791;50.696;4.396;2022-12-29T09:09:17;10.00;99.90
23100;DHT22;53791;50.696;4.396;2022-12-29T09:11:45;10.00;99.90
23100;DHT22;53791;50.696;4.396;2022-12-29T09:14:13;10.00;99.90
23100;DHT22;53791;50.696;4.396;2022-12-29T09:16:41;10.10;99.90
23100;DHT22;53791;50.696;4.396;2022-12-29T09:19:26;10.10;99.90
23100;DHT22;53791;50.696;4.396;2022-12-29T09:21:54;10.10;99.90
23100;DHT22;53791;50.696;4.396;2022-12-29T09:24:21;10.10;99.90
23100;DHT22;53791;50.696;4.396;2022-12-29T09:26:53;10.20;99.90
23100;DHT22;53791;50.696;4.396;2022-12-29T09:29:21;10.10;99.90
23100;DHT22;53791;50.696;4.396;2022-12-29T09:31:49;10.20;99.90
23100;DHT22;53791;50.696;4.396;2022-12-29T09:34:18;10.30;99.90
23100;DHT22;53791;50.696;4.396;2022-12-29T09:36:46;10.30;99.90
23100;DHT22;53791;50.696;4.396;2022-12-29T09:39:13;10.40;99.90
23100;DHT22;53791;50.696;4.396;2022-12-29T09:41:49;10.40;99.90
23100;DHT22;53791;50.696;4.396;2022-12-29T09:44:17;10.40;99.90
23100;DHT22;53791;50.696;4.396;2022-12-29T09:46:48;10.40;99.90
23100;DHT22;53791;50.696;4.396;2022-12-29T09:49:28;10.40;99.90
23100;DHT22;53791;50.696;4.396;2022-12-29T09:51:59;10.40;99.90
23100;DHT22;53791;50.696;4.396;2022-12-29T09:54:38;10.50;99.90
23100;DHT22;53791;50.696;4.396;2022-12-29T09:57:02;10.50;99.90
23100;DHT22;53791;50.696;4.396;2022-12-29T09:59:41;10.50;99.90
23100;DHT22;53791;50.696;4.396;2022-12-29T10:02:31;10.50;99.90
23100;DHT22;53791;50.696;4.396;2022-12-29T10:04:57;10.50;99.90
23100;DHT22;53791;50.696;4.396;2022-12-29T10:07:41;10.50;99.90
23100;DHT22;53791;50.696;4.396;2022-12-29T10:10:30;10.50;99.90
23100;DHT22;53791;50.696;4.396;2022-12-29T10:15:49;10.70;99.90
23100;DHT22;53791;50.696;4.396;2022-12-29T10:18:26;10.70;99.90
23100;DHT22;53791;50.696;4.396;2022-12-29T10:20:58;10.70;99.90
23100;DHT22;53791;50.696;4.396;2022-12-29T10:23:30;10.70;99.90
23100;DHT22;53791;50.696;4.396;2022-12-29T10:26:07;10.70;99.90
23100;DHT22;53791;50.696;4.396;2022-12-29T10:28:49;10.80;99.90
23100;DHT22;53791;50.696;4.396;2022-12-29T10:31:22;10.90;99.90
23100;DHT22;53791;50.696;4.396;2022-12-29T10:33:53;11.20;99.90
23100;DHT22;53791;50.696;4.396;2022-12-29T10:36:33;11.20;99.90
23100;DHT22;53791;50.696;4.396;2022-12-29T10:39:14;11.20;99.90
23100;DHT22;53791;50.696;4.396;2022-12-29T10:41:44;11.20;99.90
23100;DHT22;53791;50.696;4.396;2022-12-29T10:44:15;11.40;99.90
23100;DHT22;53791;50.696;4.396;2022-12-29T10:46:44;11.20;99.90
23100;DHT22;53791;50.696;4.396;2022-12-29T10:49:16;11.10;99.90
23100;DHT22;53791;50.696;4.396;2022-12-29T10:51:46;11.00;99.90
23100;DHT22;53791;50.696;4.396;2022-12-29T10:54:32;10.90;99.90
23100;DHT22;53791;50.696;4.396;2022-12-29T10:57:10;10.70;99.90
23100;DHT22;53791;50.696;4.396;2022-12-29T10:59:36;10.70;99.90
23100;DHT22;53791;50.696;4.396;2022-12-29T11:05:10;10.50;99.90
23100;DHT22;53791;50.696;4.396;2022-12-29T11:07:33;10.50;99.90
23100;DHT22;53791;50.696;4.396;2022-12-29T11:10:29;10.40;99.90
23100;DHT22;53791;50.696;4.396;2022-12-29T11:13:10;10.40;99.90
23100;DHT22;53791;50.696;4.396;2022-12-29T11:18:02;10.30;99.90
23100;DHT22;53791;50.696;4.396;2022-12-29T11:20:37;10.40;99.90
23100;DHT22;53791;50.696;4.396;2022-12-29T11:23:24;10.40;99.90
23100;DHT22;53791;50.696;4.396;2022-12-29T11:26:14;10.40;99.90
23100;DHT22;53791;50.696;4.396;2022-12-29T11:28:40;10.40;99.90
23100;DHT22;53791;50.696;4.396;2022-12-29T11:31:09;10.40;99.90
23100;DHT22;53791;50.696;4.396;2022-12-29T11:33:38;10.30;99.90
23100;DHT22;53791;50.696;4.396;2022-12-29T11:36:08;10.30;99.90
23100;DHT22;53791;50.696;4.396;2022-12-29T11:38:45;10.30;99.90
23100;DHT22;53791;50.696;4.396;2022-12-29T11:41:11;10.40;99.90
23100;DHT22;53791;50.696;4.396;2022-12-29T11:43:45;10.40;99.90
23100;DHT22;53791;50.696;4.396;2022-12-29T11:46:17;10.40;99.90
23100;DHT22;53791;50.696;4.396;2022-12-29T11:48:48;10.40;99.90
23100;DHT22;53791;50.696;4.396;2022-12-29T11:51:26;10.30;99.90
23100;DHT22;53791;50.696;4.396;2022-12-29T11:53:56;10.40;99.90
23100;DHT22;53791;50.696;4.396;2022-12-29T11:56:39;10.30;99.90
23100;DHT22;53791;50.696;4.396;2022-12-29T11:59:36;10.40;99.90
23100;DHT22;53791;50.696;4.396;2022-12-29T12:01:58;10.30;99.90
23100;DHT22;53791;50.696;4.396;2022-12-29T12:04:29;10.40;99.90
23100;DHT22;53791;50.696;4.396;2022-12-29T12:10:01;10.50;99.90
23100;DHT22;53791;50.696;4.396;2022-12-29T12:12:50;10.50;99.90
23100;DHT22;53791;50.696;4.396;2022-12-29T12:15:24;10.50;99.90
23100;DHT22;53791;50.696;4.396;2022-12-29T12:20:54;10.40;99.90
23100;DHT22;53791;50.696;4.396;2022-12-29T12:26:37;10.30;99.90
23100;DHT22;53791;50.696;4.396;2022-12-29T12:29:16;10.30;99.90
23100;DHT22;53791;50.696;4.396;2022-12-29T12:31:49;10.20;99.90
23100;DHT22;53791;50.696;4.396;2022-12-29T12:34:24;10.20;99.90
23100;DHT22;53791;50.696;4.396;2022-12-29T12:39:59;10.20;99.90
23100;DHT22;53791;50.696;4.396;2022-12-29T12:42:33;10.30;99.90
23100;DHT22;53791;50.696;4.396;2022-12-29T12:50:45;10.40;99.90
23100;DHT22;53791;50.696;4.396;2022-12-29T12:53:26;10.40;99.90
23100;DHT22;53791;50.696;4.396;2022-12-29T13:01:32;10.20;99.90
23100;DHT22;53791;50.696;4.396;2022-12-29T13:04:29;10.20;99.90
23100;DHT22;53791;50.696;4.396;2022-12-29T13:07:04;10.10;99.90
23100;DHT22;53791;50.696;4.396;2022-12-29T13:20:53;10.00;99.90
23100;DHT22;53791;50.696;4.396;2022-12-29T13:23:34;9.90;99.90
23100;DHT22;53791;50.696;4.396;2022-12-29T13:26:29;9.90;99.90
23100;DHT22;53791;50.696;4.396;2022-12-29T13:29:04;9.90;99.90
23100;DHT22;53791;50.696;4.396;2022-12-29T13:34:43;9.70;99.90
23100;DHT22;53791;50.696;4.396;2022-12-29T13:37:11;9.60;99.90
23100;DHT22;53791;50.696;4.396;2022-12-29T13:39:48;9.40;99.90
23100;DHT22;53791;50.696;4.396;2022-12-29T13:42:13;9.40;99.90
23100;DHT22;53791;50.696;4.396;2022-12-29T13:44:59;9.30;99.90
23100;DHT22;53791;50.696;4.396;2022-12-29T13:47:38;9.30;99.90
23100;DHT22;53791;50.696;4.396;2022-12-29T13:50:05;9.40;99.90
23100;DHT22;53791;50.696;4.396;2022-12-29T13:52:40;9.40;99.90
23100;DHT22;53791;50.696;4.396;2022-12-29T13:55:38;9.40;99.90
23100;DHT22;53791;50.696;4.396;2022-12-29T13:58:09;9.40;99.90
23100;DHT22;53791;50.696;4.396;2022-12-29T14:00:48;9.40;99.90
23100;DHT22;53791;50.696;4.396;2022-12-29T14:05:46;9.50;99.90
23100;DHT22;53791;50.696;4.396;2022-12-29T14:08:18;9.50;99.90
23100;DHT22;53791;50.696;4.396;2022-12-29T14:10:47;9.50;99.90
23100;DHT22;53791;50.696;4.396;2022-12-29T14:13:18;9.50;99.90
23100;DHT22;53791;50.696;4.396;2022-12-29T14:15:54;9.50;99.90
23100;DHT22;53791;50.696;4.396;2022-12-29T14:18:30;9.50;99.90
23100;DHT22;53791;50.696;4.396;2022-12-29T14:21:00;9.50;99.90
23100;DHT22;53791;50.696;4.396;2022-12-29T14:23:39;9.50;99.90
23100;DHT22;53791;50.696;4.396;2022-12-29T14:28:40;9.50;99.90
23100;DHT22;53791;50.696;4.396;2022-12-29T14:31:34;9.60;99.90
23100;DHT22;53791;50.696;4.396;2022-12-29T14:36:40;9.60;99.90
23100;DHT22;53791;50.696;4.396;2022-12-29T14:42:15;9.60;99.90
23100;DHT22;53791;50.696;4.396;2022-12-29T14:44:51;9.60;99.90
23100;DHT22;53791;50.696;4.396;2022-12-29T14:47:32;9.60;99.90
23100;DHT22;53791;50.696;4.396;2022-12-29T14:50:06;9.50;99.90
23100;DHT22;53791;50.696;4.396;2022-12-29T14:52:51;9.40;99.90
23100;DHT22;53791;50.696;4.396;2022-12-29T14:55:41;9.30;99.90
23100;DHT22;53791;50.696;4.396;2022-12-29T14:58:29;9.30;99.90
23100;DHT22;53791;50.696;4.396;2022-12-29T15:00:59;9.20;99.90
23100;DHT22;53791;50.696;4.396;2022-12-29T15:03:32;9.20;99.90
23100;DHT22;53791;50.696;4.396;2022-12-29T15:06:10;9.10;99.90
23100;DHT22;53791;50.696;4.396;2022-12-29T15:08:47;9.10;99.90
23100;DHT22;53791;50.696;4.396;2022-12-29T15:11:20;9.10;99.90
23100;DHT22;53791;50.696;4.396;2022-12-29T15:13:51;9.10;99.90
23100;DHT22;53791;50.696;4.396;2022-12-29T15:16:32;9.10;99.90
23100;DHT22;53791;50.696;4.396;2022-12-29T15:19:01;9.10;99.90
23100;DHT22;53791;50.696;4.396;2022-12-29T15:21:33;9.00;99.90
23100;DHT22;53791;50.696;4.396;2022-12-29T15:24:03;9.10;99.90
23100;DHT22;53791;50.696;4.396;2022-12-29T15:26:42;9.10;99.90
23100;DHT22;53791;50.696;4.396;2022-12-29T15:29:39;9.00;99.90
23100;DHT22;53791;50.696;4.396;2022-12-29T15:32:21;8.90;99.90
23100;DHT22;53791;50.696;4.396;2022-12-29T15:34:56;8.70;99.90
23100;DHT22;53791;50.696;4.396;2022-12-29T15:37:32;8.40;99.90
23100;DHT22;53791;50.696;4.396;2022-12-29T15:39:57;8.30;99.90
23100;DHT22;53791;50.696;4.396;2022-12-29T15:42:45;8.20;99.90
23100;DHT22;53791;50.696;4.396;2022-12-29T15:45:10;8.10;99.90
23100;DHT22;53791;50.696;4.396;2022-12-29T15:47:42;8.10;99.90
23100;DHT22;53791;50.696;4.396;2022-12-29T15:50:34;8.00;99.90
23100;DHT22;53791;50.696;4.396;2022-12-29T15:53:12;8.00;99.90
23100;DHT22;53791;50.696;4.396;2022-12-29T15:55:42;8.00;99.90
23100;DHT22;53791;50.696;4.396;2022-12-29T15:58:28;8.00;99.90
23100;DHT22;53791;50.696;4.396;2022-12-29T16:00:49;8.00;99.90
23100;DHT22;53791;50.696;4.396;2022-12-29T16:03:29;8.10;99.90
23100;DHT22;53791;50.696;4.396;2022-12-29T16:06:08;8.10;99.90
23100;DHT22;53791;50.696;4.396;2022-12-29T16:08:39;8.10;99.90
23100;DHT22;53791;50.696;4.396;2022-12-29T16:11:27;8.00;99.90
23100;DHT22;53791;50.696;4.396;2022-12-29T16:13:57;7.90;99.90
23100;DHT22;53791;50.696;4.396;2022-12-29T16:16:33;7.90;99.90
23100;DHT22;53791;50.696;4.396;2022-12-29T16:19:08;7.80;99.90
23100;DHT22;53791;50.696;4.396;2022-12-29T16:24:11;7.80;99.90
23100;DHT22;53791;50.696;4.396;2022-12-29T16:26:45;7.80;99.90
23100;DHT22;53791;50.696;4.396;2022-12-29T16:29:13;7.80;99.90
23100;DHT22;53791;50.696;4.396;2022-12-29T16:31:52;7.80;99.90
23100;DHT22;53791;50.696;4.396;2022-12-29T16:39:37;7.80;99.90
23100;DHT22;53791;50.696;4.396;2022-12-29T16:42:33;7.80;99.90
23100;DHT22;53791;50.696;4.396;2022-12-29T16:50:37;7.80;99.90
23100;DHT22;53791;50.696;4.396;2022-12-29T16:53:05;7.80;99.90
23100;DHT22;53791;50.696;4.396;2022-12-29T16:55:40;7.80;99.90
23100;DHT22;53791;50.696;4.396;2022-12-29T16:58:11;7.80;99.90
23100;DHT22;53791;50.696;4.396;2022-12-29T17:00:38;7.90;99.90
23100;DHT22;53791;50.696;4.396;2022-12-29T17:03:10;7.90;99.90
23100;DHT22;53791;50.696;4.396;2022-12-29T17:05:40;7.90;99.90
23100;DHT22;53791;50.696;4.396;2022-12-29T17:08:21;8.00;99.90
23100;DHT22;53791;50.696;4.396;2022-12-29T17:10:59;8.00;99.90
23100;DHT22;53791;50.696;4.396;2022-12-29T17:13:46;8.00;99.90
23100;DHT22;53791;50.696;4.396;2022-12-29T17:16:14;8.10;99.90
23100;DHT22;53791;50.696;4.396;2022-12-29T17:18:41;8.10;99.90
23100;DHT22;53791;50.696;4.396;2022-12-29T17:21:09;8.10;99.90
23100;DHT22;53791;50.696;4.396;2022-12-29T17:23:38;8.10;99.90
23100;DHT22;53791;50.696;4.396;2022-12-29T17:26:08;8.10;99.90